Highland Township, Michigan
Current Conditions -  °F | °C
As of 6:53 AM on Saturday 25 Oct 2014 (Local Time) from KPTK Reporting Station
Haze Haze  
Wind Chill: 49°   Ceiling: 5000
Heat Index: 49°   Visibility: 5mi
Dew Point: 46°   Wind: 0mph
Humidity: 90%   Direction: NA
Pressure: 29.84"   Gusts: NA
Location:  42.6632°N, 83.6457°W
Report Text: KPTK 251053Z 00000KT 5SM BR BKN050 BKN080 09/08 A2984 RMK AO2 SLP105 T00940078
Loading
Personal Weather Stations






























Interactive Weather Map New forecast layout! Learn more

10-Day Weather Forecast

Advertisements
Track Severe Weather on mobile